Time;durP1;ratioP1;P1;durP2;ratioP2;P2;SDS_P1;SDS_P2;PMS_P1;PMS_P2;Temp;Humidity;BMP_temperature;BMP_pressure;BME280_temperature;BME280_humidity;BME280_pressure;Samples;Min_cycle;Max_cycle;Signal;HPM_P1;HPM_P2
2023/01/23 00:02:19;;;;;;;2.55;2.25;;;3.70;99.90;;;;;;5055423;28;20021;-74
2023/01/23 00:04:45;;;;;;;0.10;0.10;;;3.80;99.90;;;;;;5054656;28;20037;-74
2023/01/23 00:07:11;;;;;;;0.77;0.77;;;3.70;99.90;;;;;;5055489;28;20511;-74
2023/01/23 00:09:37;;;;;;;0.57;0.57;;;3.60;99.90;;;;;;5055574;28;20036;-75
2023/01/23 00:12:04;;;;;;;0.40;0.40;;;3.70;99.90;;;;;;5055345;28;20511;-74
2023/01/23 00:14:31;;;;;;;1.35;1.27;;;3.70;99.90;;;;;;5055491;28;20032;-74
2023/01/23 00:16:56;;;;;;;0.45;0.45;;;3.60;99.90;;;;;;5054145;28;20033;-74
2023/01/23 00:19:22;;;;;;;1.40;1.30;;;3.60;99.90;;;;;;5053863;28;20480;-74
2023/01/23 00:21:48;;;;;;;0.17;0.17;;;3.70;99.90;;;;;;5055534;28;20461;-74
2023/01/23 00:24:14;;;;;;;2.20;2.00;;;3.70;99.90;;;;;;5055344;28;20044;-74
2023/01/23 00:26:40;;;;;;;0.20;0.20;;;3.70;99.90;;;;;;5054887;28;20469;-74
2023/01/23 00:29:06;;;;;;;0.45;0.45;;;3.80;99.90;;;;;;5055352;28;20483;-74
2023/01/23 00:31:35;;;;;;;0.68;0.68;;;3.70;99.90;;;;;;5055165;28;20063;-74
2023/01/23 00:34:04;;;;;;;0.15;0.15;;;3.50;99.90;;;;;;5054047;28;20021;-74
2023/01/23 00:36:33;;;;;;;1.27;1.17;;;3.50;99.90;;;;;;5053565;28;20472;-74
2023/01/23 00:38:59;;;;;;;1.73;1.63;;;3.40;99.90;;;;;;5054010;28;20033;-74
2023/01/23 00:41:25;;;;;;;0.10;0.10;;;3.50;99.90;;;;;;5053424;28;20103;-74
2023/01/23 00:43:52;;;;;;;6.30;2.55;;;3.50;99.90;;;;;;5054994;28;20028;-74
2023/01/23 00:46:19;;;;;;;0.20;0.20;;;3.60;99.90;;;;;;5053866;28;20384;-74
2023/01/23 00:48:45;;;;;;;2.92;1.55;;;3.60;99.90;;;;;;5053332;28;20067;-74
2023/01/23 00:51:11;;;;;;;1.92;1.50;;;3.50;99.90;;;;;;5055223;28;20365;-74
2023/01/23 00:53:37;;;;;;;1.10;1.00;;;3.40;99.90;;;;;;5054671;28;20033;-74
2023/01/23 00:56:03;;;;;;;0.65;0.65;;;3.50;99.90;;;;;;5053063;28;20017;-74
2023/01/23 00:58:29;;;;;;;1.55;1.15;;;3.50;99.90;;;;;;5036910;28;20032;-74
2023/01/23 01:00:55;;;;;;;0.73;0.73;;;3.40;99.90;;;;;;5053306;28;20025;-74
2023/01/23 01:03:24;;;;;;;3.88;2.75;;;3.60;99.90;;;;;;5053448;28;20028;-74
2023/01/23 01:05:51;;;;;;;0.28;0.28;;;3.60;99.90;;;;;;5054595;28;20036;-74
2023/01/23 01:08:17;;;;;;;0.28;0.28;;;3.70;99.90;;;;;;5053129;28;20090;-74
2023/01/23 01:10:43;;;;;;;0.20;0.20;;;3.80;99.90;;;;;;5054552;28;20060;-75
2023/01/23 01:13:10;;;;;;;0.40;0.40;;;3.90;99.90;;;;;;5039930;28;20040;-74
2023/01/23 01:15:36;;;;;;;0.10;0.10;;;3.80;99.90;;;;;;5053262;28;20033;-74
2023/01/23 01:18:03;;;;;;;1.13;0.60;;;3.90;99.90;;;;;;5054002;28;20021;-75
2023/01/23 01:20:29;;;;;;;0.40;0.40;;;3.70;99.90;;;;;;5036479;28;20043;-75
2023/01/23 01:22:57;;;;;;;2.00;0.77;;;3.50;99.90;;;;;;5052583;28;20025;-75
2023/01/23 01:25:22;;;;;;;0.45;0.45;;;3.70;99.90;;;;;;5054353;28;20037;-74
2023/01/23 01:27:48;;;;;;;0.55;0.50;;;3.70;99.90;;;;;;5052858;28;20067;-75
2023/01/23 01:30:16;;;;;;;0.00;0.00;;;3.80;99.90;;;;;;5052983;28;20386;-74
2023/01/23 01:32:43;;;;;;;2.00;1.50;;;4.00;99.90;;;;;;5054195;28;20029;-74
2023/01/23 01:35:09;;;;;;;1.02;1.02;;;4.10;99.90;;;;;;5053913;28;20048;-74
2023/01/23 01:37:37;;;;;;;2.47;2.28;;;4.20;99.90;;;;;;5053612;28;20056;-75
2023/01/23 01:40:06;;;;;;;0.10;0.10;;;4.20;99.90;;;;;;5052496;28;20021;-74
2023/01/23 01:42:39;;;;;;;0.93;0.73;;;4.00;99.90;;;;;;5053866;28;20021;-75
2023/01/23 01:45:05;;;;;;;1.77;1.10;;;3.90;99.90;;;;;;5053551;28;20028;-74
2023/01/23 01:47:31;;;;;;;9.73;3.00;;;3.90;99.90;;;;;;5053894;28;20021;-74
2023/01/23 01:50:03;;;;;;;3.92;2.55;;;3.80;99.90;;;;;;5052183;28;20033;-74
2023/01/23 01:52:29;;;;;;;0.10;0.10;;;3.80;99.90;;;;;;5050138;28;20029;-74
2023/01/23 01:54:57;;;;;;;0.50;0.50;;;3.60;99.90;;;;;;5051881;28;20021;-74
2023/01/23 01:57:33;;;;;;;0.17;0.17;;;3.50;99.90;;;;;;5053296;28;20029;-74
2023/01/23 02:00:07;;;;;;;0.43;0.43;;;3.60;99.90;;;;;;5051811;28;20048;-74
2023/01/23 02:02:44;;;;;;;0.10;0.10;;;3.50;99.90;;;;;;5053597;28;20366;-74
2023/01/23 02:05:14;;;;;;;0.85;0.85;;;3.50;99.90;;;;;;5052030;28;20040;-74
2023/01/23 02:08:12;;;;;;;0.35;0.35;;;3.50;99.90;;;;;;5051895;28;20163;-74
2023/01/23 02:10:39;;;;;;;0.52;0.52;;;3.50;99.90;;;;;;5035382;28;20048;-74
2023/01/23 02:13:35;;;;;;;1.67;0.88;;;3.80;99.90;;;;;;5052045;28;20056;-74
2023/01/23 02:16:06;;;;;;;0.55;0.55;;;3.70;99.90;;;;;;5051063;28;20033;-74
2023/01/23 02:18:35;;;;;;;1.75;1.10;;;3.70;99.90;;;;;;5051942;28;20047;-74
2023/01/23 02:21:05;;;;;;;1.70;0.73;;;3.60;99.90;;;;;;5052855;28;20040;-74
2023/01/23 02:23:40;;;;;;;3.72;2.20;;;3.60;99.90;;;;;;5035451;28;20111;-74
2023/01/23 02:26:12;;;;;;;2.60;2.40;;;3.50;99.90;;;;;;5052999;28;20051;-74
2023/01/23 02:28:51;;;;;;;2.05;1.95;;;3.60;99.90;;;;;;5051904;28;20036;-74
2023/01/23 02:31:21;;;;;;;1.17;1.17;;;3.40;99.90;;;;;;5051544;28;20064;-75
2023/01/23 02:33:53;;;;;;;0.32;0.32;;;3.50;99.90;;;;;;5051921;28;20051;-74
2023/01/23 02:36:20;;;;;;;;;;;3.50;99.90;;;;;;5051328;28;20121;-74
2023/01/23 02:39:08;;;;;;;0.40;0.40;;;3.60;99.90;;;;;;5052781;28;20395;-74
2023/01/23 02:41:45;;;;;;;5.57;3.03;;;3.70;99.90;;;;;;5051801;28;20040;-74
2023/01/23 02:44:24;;;;;;;0.30;0.30;;;3.50;99.90;;;;;;5051632;28;20025;-74
2023/01/23 02:46:54;;;;;;;0.10;0.10;;;3.60;99.90;;;;;;5051441;28;20025;-74
2023/01/23 02:49:21;;;;;;;10.85;3.00;;;3.60;99.90;;;;;;5052603;28;20025;-74
2023/01/23 02:51:52;;;;;;;0.30;0.30;;;3.40;99.90;;;;;;5051024;28;20082;-74
2023/01/23 02:54:19;;;;;;;0.03;0.03;;;3.50;99.90;;;;;;5034875;28;20021;-74
2023/01/23 02:56:45;;;;;;;2.67;1.02;;;3.60;99.90;;;;;;5052605;28;20048;-74
2023/01/23 03:01:56;;;;;;;1.05;0.80;;;3.60;99.90;;;;;;5050547;28;20036;-74
2023/01/23 03:04:23;;;;;;;1.23;1.17;;;3.80;99.90;;;;;;5050996;28;20025;-74
2023/01/23 03:06:48;;;;;;;1.42;1.13;;;3.80;99.90;;;;;;5052288;28;20028;-74
2023/01/23 03:09:16;;;;;;;0.50;0.50;;;3.80;99.90;;;;;;5051335;28;20032;-74
2023/01/23 03:11:44;;;;;;;1.88;1.73;;;3.80;99.90;;;;;;5052523;28;20032;-74
2023/01/23 03:14:14;;;;;;;0.73;0.73;;;3.80;99.90;;;;;;5050950;28;20036;-74
2023/01/23 03:16:41;;;;;;;3.85;1.60;;;4.10;99.90;;;;;;5051070;28;20397;-74
2023/01/23 03:19:08;;;;;;;0.75;0.75;;;3.80;99.90;;;;;;5050885;28;20459;-74
2023/01/23 03:21:38;;;;;;;3.75;2.30;;;3.90;99.90;;;;;;5051148;28;20115;-74
2023/01/23 03:24:06;;;;;;;3.53;2.65;;;3.80;99.90;;;;;;5052521;28;20096;-74
2023/01/23 03:26:32;;;;;;;0.00;0.00;;;4.10;99.90;;;;;;5050969;28;20029;-74
2023/01/23 03:31:42;;;;;;;5.68;2.58;;;4.00;99.90;;;;;;5050891;28;20025;-74
2023/01/23 03:34:08;;;;;;;2.42;2.22;;;3.70;99.90;;;;;;5050889;28;20031;-74
2023/01/23 03:36:36;;;;;;;0.10;0.10;;;3.70;99.90;;;;;;5050610;28;20513;-74
2023/01/23 03:41:52;;;;;;;1.35;1.27;;;3.70;99.90;;;;;;5050741;28;20036;-74
2023/01/23 03:44:19;;;;;;;0.25;0.25;;;3.70;99.90;;;;;;5051196;28;20027;-74
2023/01/23 03:46:48;;;;;;;6.55;3.83;;;3.70;99.90;;;;;;5050476;28;20031;-74
2023/01/23 03:49:15;;;;;;;12.35;5.10;;;3.80;99.90;;;;;;5051300;28;20071;-74
2023/01/23 03:51:41;;;;;;;0.10;0.10;;;3.80;99.90;;;;;;5050699;28;20061;-74
2023/01/23 03:54:10;;;;;;;1.35;1.25;;;3.70;99.90;;;;;;5050964;28;20460;-74
2023/01/23 03:56:36;;;;;;;0.52;0.50;;;3.60;99.90;;;;;;5050607;28;20039;-74
2023/01/23 03:59:04;;;;;;;2.90;0.55;;;3.70;99.90;;;;;;5034286;28;20465;-74
2023/01/23 04:01:30;;;;;;;2.35;2.15;;;3.70;99.90;;;;;;5050585;28;20142;-74
2023/01/23 04:03:56;;;;;;;2.53;1.15;;;3.90;99.90;;;;;;5050374;28;20052;-74
2023/01/23 04:06:22;;;;;;;0.90;0.55;;;3.80;99.90;;;;;;5050508;28;20112;-74
2023/01/23 04:08:50;;;;;;;1.55;0.65;;;3.90;99.90;;;;;;5050484;28;20436;-74
2023/01/23 04:11:16;;;;;;;0.10;0.10;;;3.90;99.90;;;;;;5050785;28;20033;-74
2023/01/23 04:13:42;;;;;;;5.32;3.10;;;4.00;99.90;;;;;;5050565;28;20071;-74
2023/01/23 04:16:08;;;;;;;0.00;0.00;;;3.90;99.90;;;;;;5055328;28;20017;-74
2023/01/23 04:18:35;;;;;;;4.05;1.85;;;3.90;99.90;;;;;;5053654;28;20036;-74
2023/01/23 04:21:01;;;;;;;4.38;1.35;;;3.70;99.90;;;;;;5053798;28;20366;-74
2023/01/23 04:23:29;;;;;;;4.28;3.25;;;3.70;99.90;;;;;;5054003;28;20025;-74
2023/01/23 04:25:55;;;;;;;4.03;2.67;;;3.70;99.90;;;;;;5053861;28;20104;-74
2023/01/23 04:28:21;;;;;;;2.05;1.58;;;3.80;99.90;;;;;;5053867;28;20170;-74
2023/01/23 04:30:50;;;;;;;2.33;1.30;;;3.80;99.90;;;;;;5053895;28;20025;-74
2023/01/23 04:33:23;;;;;;;0.63;0.63;;;3.80;99.90;;;;;;5038015;28;20391;-74
2023/01/23 04:36:00;;;;;;;2.55;2.35;;;3.70;99.90;;;;;;5053789;28;20029;-73
2023/01/23 04:38:29;;;;;;;0.15;0.15;;;3.60;99.90;;;;;;5039742;28;20207;-74
2023/01/23 04:40:58;;;;;;;1.25;1.02;;;3.70;99.90;;;;;;5051018;28;20491;-73
2023/01/23 04:43:24;;;;;;;5.47;1.27;;;3.70;99.90;;;;;;5053722;28;20052;-73
2023/01/23 04:45:55;;;;;;;3.95;1.80;;;3.70;99.90;;;;;;5053262;28;20589;-73
2023/01/23 04:48:41;;;;;;;0.10;0.10;;;3.60;99.90;;;;;;5045891;28;20112;-73
2023/01/23 04:51:08;;;;;;;4.70;2.17;;;3.80;99.90;;;;;;5037051;28;20025;-73
2023/01/23 04:53:35;;;;;;;17.52;3.40;;;3.80;99.90;;;;;;5036851;28;20017;-73
2023/01/23 04:56:02;;;;;;;0.68;0.68;;;3.70;99.90;;;;;;5053529;28;20028;-73
2023/01/23 04:58:29;;;;;;;0.22;0.22;;;3.70;99.90;;;;;;5053421;28;20373;-73
2023/01/23 05:01:05;;;;;;;9.48;4.18;;;3.50;99.90;;;;;;5036915;28;20029;-73
2023/01/23 05:03:33;;;;;;;1.98;0.45;;;3.60;99.90;;;;;;5054403;28;20033;-74
2023/01/23 05:06:00;;;;;;;0.75;0.75;;;3.50;99.90;;;;;;5053144;28;20047;-74
2023/01/23 05:08:26;;;;;;;0.85;0.85;;;3.60;99.90;;;;;;5036763;28;20033;-74
2023/01/23 05:11:06;;;;;;;1.95;0.88;;;3.80;99.90;;;;;;5039799;28;20048;-74
2023/01/23 05:13:32;;;;;;;0.90;0.65;;;3.80;99.90;;;;;;5036522;28;20029;-74
2023/01/23 05:15:58;;;;;;;0.17;0.17;;;3.90;99.90;;;;;;5052722;28;20071;-74
2023/01/23 05:18:25;;;;;;;0.40;0.40;;;4.00;99.90;;;;;;5052782;28;20036;-74
2023/01/23 05:20:52;;;;;;;2.53;1.55;;;4.00;99.90;;;;;;5052783;28;20037;-74
2023/01/23 05:23:19;;;;;;;1.55;1.17;;;4.00;99.90;;;;;;5036544;28;20469;-74
2023/01/23 05:25:48;;;;;;;1.70;0.90;;;4.10;99.90;;;;;;5052272;28;20496;-74
2023/01/23 05:28:15;;;;;;;2.30;2.10;;;4.00;99.90;;;;;;5053041;28;20029;-74
2023/01/23 05:30:46;;;;;;;4.40;3.97;;;4.10;99.90;;;;;;5052368;28;20630;-73
2023/01/23 05:33:22;;;;;;;3.05;2.80;;;4.20;99.90;;;;;;5053103;28;20377;-74
2023/01/23 05:35:48;;;;;;;0.10;0.10;;;3.90;99.90;;;;;;5052718;28;20025;-74
2023/01/23 05:38:13;;;;;;;2.95;1.60;;;4.20;99.90;;;;;;5053693;28;20334;-74
2023/01/23 05:40:41;;;;;;;0.10;0.10;;;4.50;99.90;;;;;;5052367;28;20175;-74
2023/01/23 05:43:13;;;;;;;;;;;4.40;99.90;;;;;;5054382;28;20048;-74
2023/01/23 05:46:05;;;;;;;;;;;4.30;99.90;;;;;;5053348;28;19909;-74
2023/01/23 05:48:41;;;;;;;0.10;0.10;;;4.00;99.90;;;;;;5052663;28;20261;-74
2023/01/23 05:51:09;;;;;;;1.17;0.75;;;4.00;99.90;;;;;;5051923;28;20107;-74
2023/01/23 05:53:36;;;;;;;1.48;1.48;;;4.40;99.90;;;;;;5052454;28;20032;-74
2023/01/23 05:56:07;;;;;;;6.95;3.95;;;4.20;99.90;;;;;;5052385;28;20031;-74
2023/01/23 05:58:37;;;;;;;0.77;0.73;;;4.20;99.90;;;;;;5035848;28;20036;-73
2023/01/23 06:01:38;;;;;;;0.25;0.25;;;4.10;99.90;;;;;;5049254;28;20489;-74
2023/01/23 06:04:29;;;;;;;0.20;0.20;;;4.20;99.90;;;;;;5039512;28;20178;-74
2023/01/23 06:07:13;;;;;;;1.98;0.90;;;4.20;99.90;;;;;;5037159;28;20275;-74
2023/01/23 06:09:39;;;;;;;0.15;0.15;;;4.30;99.90;;;;;;5051591;28;20037;-74
2023/01/23 06:12:05;;;;;;;3.55;1.42;;;4.40;99.90;;;;;;5051914;28;20021;-74
2023/01/23 06:14:31;;;;;;;3.00;2.78;;;4.30;99.90;;;;;;5051559;28;20029;-74
2023/01/23 06:16:57;;;;;;;1.60;1.50;;;4.10;99.90;;;;;;5051894;28;20386;-74
2023/01/23 06:19:23;;;;;;;1.50;1.40;;;4.00;99.90;;;;;;5035254;28;20073;-74
2023/01/23 06:21:48;;;;;;;0.10;0.10;;;3.80;99.90;;;;;;5051777;28;20025;-74
2023/01/23 06:24:14;;;;;;;1.05;1.00;;;3.90;99.90;;;;;;5051838;28;20040;-74
2023/01/23 06:26:40;;;;;;;2.00;1.23;;;4.10;99.90;;;;;;5051681;28;20070;-74
2023/01/23 06:29:06;;;;;;;1.45;1.35;;;4.10;99.90;;;;;;5051519;28;20071;-74
2023/01/23 06:31:32;;;;;;;8.25;3.10;;;4.00;99.90;;;;;;5034826;28;20067;-74
2023/01/23 06:33:59;;;;;;;2.53;1.08;;;3.90;99.90;;;;;;5051708;28;20017;-74
2023/01/23 06:36:30;;;;;;;3.25;3.05;;;3.80;99.90;;;;;;5050776;28;20078;-74
2023/01/23 06:38:57;;;;;;;0.45;0.45;;;4.10;99.90;;;;;;5052431;28;20432;-74
2023/01/23 06:41:28;;;;;;;0.17;0.17;;;4.10;99.90;;;;;;5051343;28;20036;-74
2023/01/23 06:43:59;;;;;;;5.07;0.75;;;4.10;99.90;;;;;;5051079;28;20052;-74
2023/01/23 06:46:26;;;;;;;1.98;0.80;;;4.30;99.90;;;;;;5034937;28;20059;-74
2023/01/23 06:48:53;;;;;;;0.10;0.10;;;4.20;99.90;;;;;;5051381;28;20424;-74
2023/01/23 06:51:19;;;;;;;1.20;0.60;;;4.20;99.90;;;;;;5051277;28;20115;-73
2023/01/23 06:53:47;;;;;;;0.10;0.10;;;4.40;99.90;;;;;;5031879;28;20025;-74
2023/01/23 06:56:13;;;;;;;0.95;0.95;;;4.20;99.90;;;;;;5044632;28;20455;-74
2023/01/23 06:58:44;;;;;;;0.13;0.13;;;4.20;99.90;;;;;;5050990;28;20021;-74
2023/01/23 07:01:18;;;;;;;0.10;0.10;;;4.10;99.90;;;;;;5051005;28;20037;-74
2023/01/23 07:04:03;;;;;;;0.32;0.32;;;4.20;99.90;;;;;;5048871;28;20171;-74
2023/01/23 07:06:30;;;;;;;1.95;1.85;;;4.50;99.90;;;;;;5056354;28;20387;-74
2023/01/23 07:08:55;;;;;;;0.13;0.13;;;4.30;99.90;;;;;;5053851;28;20058;-74
2023/01/23 07:11:21;;;;;;;0.10;0.10;;;4.20;99.90;;;;;;5052915;28;20378;-74
2023/01/23 07:13:47;;;;;;;1.38;1.27;;;4.50;99.90;;;;;;5054378;28;20025;-74
2023/01/23 07:16:14;;;;;;;0.40;0.40;;;4.50;99.90;;;;;;5045049;28;20024;-74
2023/01/23 07:18:40;;;;;;;0.08;0.08;;;4.50;99.90;;;;;;5059624;28;20060;-74
2023/01/23 07:21:08;;;;;;;0.10;0.10;;;4.40;99.90;;;;;;5052985;28;20033;-74
2023/01/23 07:23:34;;;;;;;1.45;0.70;;;4.60;99.90;;;;;;5051682;28;20028;-74
2023/01/23 07:26:02;;;;;;;0.30;0.30;;;4.50;99.90;;;;;;5054550;28;20099;-74
2023/01/23 07:28:29;;;;;;;4.57;3.35;;;4.50;99.90;;;;;;5055505;28;20388;-73
2023/01/23 07:30:57;;;;;;;6.43;3.30;;;4.40;99.90;;;;;;5053106;28;20029;-73
2023/01/23 07:33:22;;;;;;;5.55;4.40;;;4.10;99.90;;;;;;5063258;28;20431;-74
2023/01/23 07:35:48;;;;;;;3.00;2.75;;;4.00;99.90;;;;;;5052594;28;20043;-73
2023/01/23 07:38:14;;;;;;;1.50;0.90;;;4.10;99.90;;;;;;5061599;28;20082;-73
2023/01/23 07:40:41;;;;;;;7.72;2.13;;;4.00;99.90;;;;;;5055979;28;20053;-76
2023/01/23 07:43:07;;;;;;;2.40;2.30;;;4.00;99.90;;;;;;5040342;28;20026;-76
2023/01/23 07:45:33;;;;;;;7.40;2.00;;;3.90;99.90;;;;;;5058380;28;20456;-75
2023/01/23 07:47:59;;;;;;;8.32;4.65;;;4.10;99.90;;;;;;5057632;28;20040;-73
2023/01/23 07:50:25;;;;;;;6.28;4.43;;;3.80;99.90;;;;;;5057871;28;20500;-74
2023/01/23 07:52:50;;;;;;;2.50;2.25;;;3.70;99.90;;;;;;5054919;28;20021;-73
2023/01/23 07:55:17;;;;;;;1.08;0.75;;;3.70;99.90;;;;;;5054720;28;20447;-74
2023/01/23 07:57:43;;;;;;;1.48;1.27;;;3.80;99.90;;;;;;5062909;28;20025;-73
2023/01/23 08:00:09;;;;;;;1.75;1.50;;;3.90;99.90;;;;;;5063536;28;20032;-72
2023/01/23 08:02:38;;;;;;;9.07;0.95;;;3.90;99.90;;;;;;5057200;28;20068;-73
2023/01/23 08:05:05;;;;;;;2.83;1.00;;;4.20;99.90;;;;;;5044862;28;20112;-73
2023/01/23 08:07:30;;;;;;;0.45;0.45;;;4.10;99.90;;;;;;5062876;28;20025;-73
2023/01/23 08:09:56;;;;;;;2.72;1.20;;;4.20;99.90;;;;;;5058764;28;20154;-73
2023/01/23 08:12:22;;;;;;;2.28;1.95;;;4.00;99.90;;;;;;5063434;28;20036;-73
2023/01/23 08:14:48;;;;;;;0.98;0.98;;;4.10;99.90;;;;;;5056283;28;20035;-73
2023/01/23 08:17:14;;;;;;;2.40;1.33;;;4.10;99.90;;;;;;5055101;28;20049;-73
2023/01/23 08:19:39;;;;;;;8.10;2.80;;;4.30;99.90;;;;;;5065132;28;20040;-73
2023/01/23 08:22:05;;;;;;;2.40;2.00;;;3.90;99.90;;;;;;5065334;28;20397;-73
2023/01/23 08:24:31;;;;;;;0.22;0.22;;;4.10;99.90;;;;;;5060248;28;20032;-73
2023/01/23 08:26:57;;;;;;;2.95;1.10;;;4.20;99.90;;;;;;5055217;28;20028;-73
2023/01/23 08:29:23;;;;;;;3.10;1.35;;;4.00;99.90;;;;;;5035096;28;20036;-74
2023/01/23 08:31:50;;;;;;;0.98;0.98;;;4.00;99.90;;;;;;5064758;28;20021;-73
2023/01/23 08:34:16;;;;;;;0.70;0.50;;;3.80;99.90;;;;;;5061363;28;20426;-74
2023/01/23 08:36:41;;;;;;;0.30;0.30;;;4.00;99.90;;;;;;5056509;28;20132;-73
2023/01/23 08:39:07;;;;;;;0.30;0.30;;;4.00;99.90;;;;;;5056285;28;20087;-73
2023/01/23 08:41:33;;;;;;;6.28;3.30;;;4.10;99.90;;;;;;5053803;28;20029;-73
2023/01/23 08:44:00;;;;;;;1.20;1.15;;;4.20;99.90;;;;;;5063569;28;20017;-74
2023/01/23 08:46:27;;;;;;;0.57;0.57;;;4.40;99.90;;;;;;5054059;28;20384;-74
2023/01/23 08:48:54;;;;;;;2.30;2.05;;;4.30;99.90;;;;;;5055690;28;20064;-74
2023/01/23 08:51:20;;;;;;;0.90;0.68;;;4.40;99.90;;;;;;5055876;28;20519;-74
2023/01/23 08:53:46;;;;;;;4.95;3.55;;;4.10;99.90;;;;;;5064203;28;20053;-74
2023/01/23 08:56:17;;;;;;;9.02;6.70;;;4.30;99.90;;;;;;5056795;28;20094;-74
2023/01/23 08:58:44;;;;;;;3.43;2.90;;;4.20;99.90;;;;;;5057777;28;20438;-74
2023/01/23 09:01:14;;;;;;;2.53;2.35;;;4.20;99.90;;;;;;5053711;28;20378;-75
2023/01/23 09:03:40;;;;;;;5.40;2.75;;;4.30;99.90;;;;;;5056255;28;20434;-75
2023/01/23 09:06:06;;;;;;;4.55;3.22;;;4.30;99.90;;;;;;5057306;28;20024;-75
2023/01/23 09:08:32;;;;;;;7.30;2.53;;;4.20;99.90;;;;;;5068068;28;20052;-73
2023/01/23 09:11:02;;;;;;;2.33;1.70;;;4.20;99.90;;;;;;5062318;28;20025;-75
2023/01/23 09:13:29;;;;;;;10.47;2.70;;;4.30;99.90;;;;;;5057814;28;20040;-76
2023/01/23 09:15:55;;;;;;;5.40;2.90;;;4.60;99.90;;;;;;5056340;28;20020;-75
2023/01/23 09:18:24;;;;;;;5.07;4.75;;;4.70;99.90;;;;;;5067273;28;20495;-75
2023/01/23 09:20:53;;;;;;;5.22;2.40;;;4.30;99.90;;;;;;5065599;28;20044;-75
2023/01/23 09:23:19;;;;;;;5.53;2.97;;;4.20;99.90;;;;;;5058936;28;20366;-75
2023/01/23 09:25:45;;;;;;;5.22;2.35;;;4.30;99.90;;;;;;5056708;28;20044;-75
2023/01/23 09:28:11;;;;;;;3.05;1.73;;;4.20;99.90;;;;;;5056101;28;20020;-75
2023/01/23 09:30:37;;;;;;;4.38;3.10;;;4.30;99.90;;;;;;5059936;28;20180;-75
2023/01/23 09:33:03;;;;;;;1.42;1.33;;;4.40;99.90;;;;;;5060722;28;20104;-75
2023/01/23 09:35:29;;;;;;;5.53;4.68;;;4.50;99.90;;;;;;5053848;28;20021;-75
2023/01/23 09:38:00;;;;;;;8.15;4.90;;;4.40;99.90;;;;;;5054785;28;20099;-75
2023/01/23 09:40:34;;;;;;;0.80;0.50;;;4.30;99.90;;;;;;5068400;28;20047;-76
2023/01/23 09:43:08;;;;;;;6.05;3.60;;;4.60;99.90;;;;;;5063072;28;20373;-75
2023/01/23 09:45:35;;;;;;;5.20;2.03;;;4.40;99.90;;;;;;5057606;28;20033;-76
2023/01/23 09:48:21;;;;;;;8.10;2.50;;;4.40;99.90;;;;;;5055577;28;20385;-75
2023/01/23 09:50:58;;;;;;;2.13;2.03;;;4.40;99.90;;;;;;5061259;28;20369;-75
2023/01/23 09:53:29;;;;;;;2.42;2.28;;;4.30;99.90;;;;;;5067249;28;20029;-76
2023/01/23 09:56:01;;;;;;;0.75;0.75;;;4.60;99.90;;;;;;5062967;28;20033;-75
2023/01/23 09:58:30;;;;;;;;;;;4.70;99.90;;;;;;5060606;28;20381;-76
2023/01/23 10:00:56;;;;;;;0.75;0.50;;;4.90;99.90;;;;;;5053634;28;19920;-76
2023/01/23 10:03:23;;;;;;;3.47;1.23;;;5.00;99.90;;;;;;5055138;28;20021;-75
2023/01/23 10:06:13;;;;;;;0.52;0.47;;;5.10;99.90;;;;;;5052392;28;20555;-75
2023/01/23 10:09:01;;;;;;;2.20;2.05;;;5.10;99.90;;;;;;5065916;28;20098;-76
2023/01/23 10:11:43;;;;;;;1.42;1.13;;;5.00;99.90;;;;;;5052806;28;20040;-75
2023/01/23 10:14:40;;;;;;;5.53;2.95;;;4.80;99.90;;;;;;5059663;28;20028;-74
2023/01/23 10:17:12;;;;;;;7.63;4.63;;;4.90;99.90;;;;;;5062584;28;20496;-75
2023/01/23 10:19:41;;;;;;;;;;;5.00;99.90;;;;;;5057939;28;20040;-76
2023/01/23 10:22:14;;;;;;;2.15;1.95;;;5.00;99.90;;;;;;5055344;28;20003;-76
2023/01/23 10:24:49;;;;;;;3.97;3.67;;;5.20;99.90;;;;;;5060033;28;20039;-75
2023/01/23 10:27:37;;;;;;;3.85;2.72;;;5.00;99.90;;;;;;5064852;28;20017;-76
2023/01/23 10:30:18;;;;;;;1.05;1.05;;;5.20;99.90;;;;;;5060029;28;20025;-75
2023/01/23 10:32:51;;;;;;;5.38;2.67;;;5.30;99.90;;;;;;5042590;28;20487;-75
2023/01/23 10:35:24;;;;;;;3.83;2.78;;;5.10;99.90;;;;;;5052281;28;20033;-75
2023/01/23 10:38:00;;;;;;;4.88;2.95;;;5.10;99.90;;;;;;5059985;28;20021;-75
2023/01/23 10:43:21;;;;;;;3.72;3.40;;;4.90;99.90;;;;;;5047658;28;20477;-75
2023/01/23 10:45:48;;;;;;;1.90;1.55;;;4.80;99.90;;;;;;5053346;28;20073;-75
2023/01/23 10:48:32;;;;;;;1.98;0.73;;;5.30;99.90;;;;;;5068154;28;20040;-75
2023/01/23 10:51:02;;;;;;;2.08;1.90;;;5.50;99.90;;;;;;5063568;28;20028;-75
2023/01/23 10:53:28;;;;;;;8.68;3.83;;;5.30;99.90;;;;;;5051613;28;20037;-75
2023/01/23 10:55:58;;;;;;;6.45;3.20;;;5.20;99.90;;;;;;5046212;28;20028;-76
2023/01/23 10:58:35;;;;;;;4.90;2.15;;;5.30;99.90;;;;;;5060609;28;20111;-76
2023/01/23 11:01:02;;;;;;;3.83;2.22;;;5.30;99.90;;;;;;5050972;28;20048;-75
2023/01/23 11:03:35;;;;;;;0.10;0.10;;;5.30;99.90;;;;;;5066076;28;20024;-79
2023/01/23 11:06:15;;;;;;;6.65;2.67;;;5.40;99.90;;;;;;5058569;28;20090;-74
2023/01/23 11:08:51;;;;;;;0.40;0.40;;;5.40;99.90;;;;;;5056814;28;20028;-75
2023/01/23 11:11:24;;;;;;;3.88;1.83;;;5.50;99.90;;;;;;5038528;28;20532;-75
2023/01/23 11:14:05;;;;;;;0.47;0.47;;;5.20;99.90;;;;;;5062563;28;20033;-75
2023/01/23 11:16:32;;;;;;;2.03;1.92;;;5.10;99.90;;;;;;5057779;28;20070;-75
2023/01/23 11:19:14;;;;;;;2.30;2.17;;;5.10;99.90;;;;;;5061271;28;20037;-75
2023/01/23 11:22:01;;;;;;;2.08;1.58;;;5.10;99.90;;;;;;5042749;28;20025;-77
2023/01/23 11:24:38;;;;;;;6.85;2.92;;;5.20;99.90;;;;;;5067744;28;20512;-75
2023/01/23 11:27:16;;;;;;;0.73;0.30;;;5.30;99.90;;;;;;5052008;28;20021;-75
2023/01/23 11:30:15;;;;;;;2.45;2.22;;;5.20;99.90;;;;;;5057930;28;20549;-73
2023/01/23 11:32:55;;;;;;;0.55;0.55;;;5.30;99.90;;;;;;5037839;28;20029;-76
2023/01/23 11:35:33;;;;;;;2.22;1.70;;;5.80;99.90;;;;;;5055089;28;20078;-75
2023/01/23 11:38:02;;;;;;;4.50;2.72;;;5.90;99.90;;;;;;5055592;28;20057;-75
2023/01/23 11:40:28;;;;;;;8.13;3.72;;;6.00;99.90;;;;;;5056067;28;20455;-75
2023/01/23 11:42:55;;;;;;;0.38;0.30;;;6.20;99.90;;;;;;5054648;28;20087;-75
2023/01/23 11:45:35;;;;;;;0.10;0.10;;;6.30;99.90;;;;;;5056065;28;20428;-76
2023/01/23 11:48:22;;;;;;;2.80;2.00;;;6.50;99.90;;;;;;5055623;28;20017;-75
2023/01/23 11:51:34;;;;;;;2.03;1.30;;;6.30;99.90;;;;;;5054653;28;20056;-76
2023/01/23 11:54:37;;;;;;;2.80;2.20;;;6.10;99.90;;;;;;5055290;28;20120;-76
2023/01/23 11:57:38;;;;;;;9.38;4.25;;;6.00;99.90;;;;;;5054678;28;20029;-75
2023/01/23 12:00:20;;;;;;;1.67;1.55;;;5.90;99.90;;;;;;5055642;28;20105;-75
2023/01/23 12:03:00;;;;;;;3.63;1.55;;;6.00;99.90;;;;;;5055488;28;20083;-76
2023/01/23 12:05:39;;;;;;;0.68;0.68;;;6.20;99.90;;;;;;5055584;28;20029;-73
2023/01/23 12:08:36;;;;;;;7.13;3.22;;;6.30;99.90;;;;;;5054300;28;20446;-75
2023/01/23 12:11:15;;;;;;;0.80;0.80;;;6.20;99.90;;;;;;5055279;28;20381;-76
2023/01/23 12:14:02;;;;;;;0.90;0.90;;;6.20;99.90;;;;;;5055613;28;20469;-75
2023/01/23 12:16:33;;;;;;;0.20;0.20;;;6.00;99.90;;;;;;5055143;28;20037;-75
2023/01/23 12:19:16;;;;;;;0.75;0.55;;;5.80;99.90;;;;;;5055354;28;20033;-75
2023/01/23 12:22:13;;;;;;;1.58;1.38;;;6.20;99.90;;;;;;5055604;28;20032;-75
2023/01/23 12:24:59;;;;;;;4.75;3.13;;;6.10;99.90;;;;;;5055385;28;20021;-75
2023/01/23 12:27:41;;;;;;;0.65;0.65;;;5.90;99.90;;;;;;5053831;28;20079;-75
2023/01/23 12:30:59;;;;;;;1.80;1.63;;;6.10;99.90;;;;;;5053718;28;20473;-74
2023/01/23 12:33:59;;;;;;;2.83;1.75;;;6.10;99.90;;;;;;5053820;28;20520;-75
2023/01/23 12:36:43;;;;;;;4.25;3.08;;;6.10;99.90;;;;;;5052249;28;20025;-75
2023/01/23 12:39:19;;;;;;;0.20;0.20;;;5.70;99.90;;;;;;5054933;28;20048;-75
2023/01/23 12:41:52;;;;;;;0.90;0.90;;;5.80;99.90;;;;;;5054930;28;20440;-75
2023/01/23 12:44:40;;;;;;;1.50;1.15;;;6.00;99.90;;;;;;5054998;28;20381;-75
2023/01/23 12:47:21;;;;;;;6.20;3.67;;;6.10;99.90;;;;;;5053704;28;20518;-76
2023/01/23 12:49:56;;;;;;;1.90;0.65;;;6.20;99.90;;;;;;5054773;28;20040;-75
2023/01/23 12:52:37;;;;;;;12.32;4.00;;;6.30;99.90;;;;;;5053613;28;20412;-76
2023/01/23 12:55:15;;;;;;;13.73;8.23;;;6.00;99.90;;;;;;5054611;28;20036;-76
2023/01/23 12:57:43;;;;;;;0.50;0.50;;;5.50;99.90;;;;;;5054944;28;20025;-75
2023/01/23 13:00:21;;;;;;;4.82;1.55;;;5.50;99.90;;;;;;5054495;28;20373;-75
2023/01/23 13:02:53;;;;;;;1.30;1.20;;;5.60;99.90;;;;;;5054823;28;20054;-76
2023/01/23 13:05:41;;;;;;;2.42;2.22;;;5.80;99.90;;;;;;5054641;28;20106;-75
2023/01/23 13:08:24;;;;;;;5.88;3.20;;;5.90;99.90;;;;;;5054907;28;20074;-75
2023/01/23 13:14:00;;;;;;;1.73;1.60;;;6.10;99.90;;;;;;5039231;28;20042;-75
2023/01/23 13:16:29;;;;;;;0.57;0.57;;;6.20;99.90;;;;;;5052888;28;20036;-75
2023/01/23 13:22:03;;;;;;;0.25;0.25;;;6.20;99.90;;;;;;5054468;28;20052;-75
2023/01/23 13:27:44;;;;;;;3.03;2.83;;;6.20;99.90;;;;;;5052505;28;20032;-75
2023/01/23 13:32:49;;;;;;;0.10;0.10;;;5.90;99.90;;;;;;5052918;28;20038;-76
2023/01/23 13:35:43;;;;;;;2.72;1.33;;;6.10;99.90;;;;;;5052620;28;20035;-75
2023/01/23 13:38:37;;;;;;;7.32;1.65;;;6.30;99.90;;;;;;5052514;28;20040;-76
2023/01/23 13:41:03;;;;;;;8.20;1.75;;;6.30;99.90;;;;;;5047434;28;20041;-75
2023/01/23 13:43:55;;;;;;;3.75;3.20;;;6.20;99.90;;;;;;5054240;28;20373;-76